sensor_id;sensor_type;location;lat;lon;timestamp;pressure;altitude;pressure_sealevel;temperature;humidity
65997;BME280;52765;52.258;21.052;2023-05-23T00:00:40;100637.81;;;14.80;78.39
65997;BME280;52765;52.258;21.052;2023-05-23T00:03:06;100638.34;;;14.75;78.24
65997;BME280;52765;52.258;21.052;2023-05-23T00:05:32;100640.75;;;14.70;78.75
65997;BME280;52765;52.258;21.052;2023-05-23T00:08:00;100643.47;;;14.70;79.54
65997;BME280;52765;52.258;21.052;2023-05-23T00:10:26;100632.28;;;14.65;79.43
65997;BME280;52765;52.258;21.052;2023-05-23T00:12:51;100641.31;;;14.66;79.99
65997;BME280;52765;52.258;21.052;2023-05-23T00:15:17;100643.16;;;14.65;79.93
65997;BME280;52765;52.258;21.052;2023-05-23T00:17:43;100637.22;;;14.61;80.10
65997;BME280;52765;52.258;21.052;2023-05-23T00:20:09;100631.97;;;14.60;80.32
65997;BME280;52765;52.258;21.052;2023-05-23T00:22:36;100635.56;;;14.60;80.16
65997;BME280;52765;52.258;21.052;2023-05-23T00:25:05;100627.06;;;14.55;80.32
65997;BME280;52765;52.258;21.052;2023-05-23T00:27:30;100627.78;;;14.49;80.61
65997;BME280;52765;52.258;21.052;2023-05-23T00:29:56;100627.81;;;14.41;80.00
65997;BME280;52765;52.258;21.052;2023-05-23T00:32:21;100626.78;;;14.34;79.80
65997;BME280;52765;52.258;21.052;2023-05-23T00:34:47;100627.19;;;14.22;79.91
65997;BME280;52765;52.258;21.052;2023-05-23T00:37:13;100620.75;;;14.15;80.36
65997;BME280;52765;52.258;21.052;2023-05-23T00:39:39;100619.94;;;14.15;80.73
65997;BME280;52765;52.258;21.052;2023-05-23T00:42:05;100618.44;;;14.12;81.41
65997;BME280;52765;52.258;21.052;2023-05-23T00:44:30;100619.75;;;14.16;81.51
65997;BME280;52765;52.258;21.052;2023-05-23T00:46:56;100624.16;;;14.17;81.57
65997;BME280;52765;52.258;21.052;2023-05-23T00:49:24;100619.94;;;14.15;81.51
65997;BME280;52765;52.258;21.052;2023-05-23T00:51:55;100619.25;;;14.13;81.54
65997;BME280;52765;52.258;21.052;2023-05-23T00:54:26;100623.66;;;14.14;80.71
65997;BME280;52765;52.258;21.052;2023-05-23T00:56:53;100630.28;;;14.11;80.59
65997;BME280;52765;52.258;21.052;2023-05-23T00:59:19;100622.66;;;14.06;80.61
65997;BME280;52765;52.258;21.052;2023-05-23T01:01:47;100620.97;;;14.05;80.78
65997;BME280;52765;52.258;21.052;2023-05-23T01:04:13;100617.41;;;14.05;81.01
65997;BME280;52765;52.258;21.052;2023-05-23T01:06:43;100631.28;;;14.02;80.49
65997;BME280;52765;52.258;21.052;2023-05-23T01:09:17;100625.38;;;13.98;80.55
65997;BME280;52765;52.258;21.052;2023-05-23T01:14:44;100630.63;;;14.00;80.74
65997;BME280;52765;52.258;21.052;2023-05-23T01:17:16;100627.75;;;13.93;81.13
65997;BME280;52765;52.258;21.052;2023-05-23T01:20:11;100624.22;;;13.93;81.32
65997;BME280;52765;52.258;21.052;2023-05-23T01:28:11;100622.91;;;13.64;80.86
65997;BME280;52765;52.258;21.052;2023-05-23T01:30:40;100629.00;;;13.58;81.11
65997;BME280;52765;52.258;21.052;2023-05-23T01:33:09;100630.00;;;13.57;81.15
65997;BME280;52765;52.258;21.052;2023-05-23T01:35:39;100625.78;;;13.54;81.33
65997;BME280;52765;52.258;21.052;2023-05-23T01:38:08;100615.78;;;13.55;81.61
65997;BME280;52765;52.258;21.052;2023-05-23T01:40:37;100628.31;;;13.56;81.55
65997;BME280;52765;52.258;21.052;2023-05-23T01:43:02;100614.25;;;13.52;82.77
65997;BME280;52765;52.258;21.052;2023-05-23T01:45:31;100626.78;;;13.53;82.69
65997;BME280;52765;52.258;21.052;2023-05-23T01:48:03;100613.44;;;13.51;82.60
65997;BME280;52765;52.258;21.052;2023-05-23T01:50:30;100609.53;;;13.46;82.75
65997;BME280;52765;52.258;21.052;2023-05-23T01:52:59;100610.06;;;13.49;82.90
65997;BME280;52765;52.258;21.052;2023-05-23T01:55:31;100616.63;;;13.47;82.82
65997;BME280;52765;52.258;21.052;2023-05-23T01:57:59;100616.28;;;13.50;82.47
65997;BME280;52765;52.258;21.052;2023-05-23T02:00:31;100605.63;;;13.40;82.71
65997;BME280;52765;52.258;21.052;2023-05-23T02:02:59;100604.25;;;13.28;83.15
65997;BME280;52765;52.258;21.052;2023-05-23T02:05:26;100609.16;;;13.24;83.41
65997;BME280;52765;52.258;21.052;2023-05-23T02:07:55;100597.16;;;13.27;83.79
65997;BME280;52765;52.258;21.052;2023-05-23T02:10:27;100604.94;;;13.30;83.18
65997;BME280;52765;52.258;21.052;2023-05-23T02:12:55;100603.25;;;13.29;83.37
65997;BME280;52765;52.258;21.052;2023-05-23T02:15:21;100597.84;;;13.29;83.11
65997;BME280;52765;52.258;21.052;2023-05-23T02:17:46;100607.97;;;13.27;83.34
65997;BME280;52765;52.258;21.052;2023-05-23T02:20:18;100596.47;;;13.25;83.61
65997;BME280;52765;52.258;21.052;2023-05-23T02:22:46;100598.00;;;13.19;83.62
65997;BME280;52765;52.258;21.052;2023-05-23T02:25:12;100592.75;;;13.18;83.73
65997;BME280;52765;52.258;21.052;2023-05-23T02:27:43;100589.91;;;13.19;83.55
65997;BME280;52765;52.258;21.052;2023-05-23T02:30:08;100585.81;;;13.15;83.55
65997;BME280;52765;52.258;21.052;2023-05-23T02:32:36;100586.84;;;13.14;83.00
65997;BME280;52765;52.258;21.052;2023-05-23T02:35:20;100585.66;;;13.17;83.45
65997;BME280;52765;52.258;21.052;2023-05-23T02:37:48;100583.28;;;13.13;83.63
65997;BME280;52765;52.258;21.052;2023-05-23T02:40:40;100582.94;;;13.17;83.77
65997;BME280;52765;52.258;21.052;2023-05-23T02:43:06;100582.09;;;13.08;83.73
65997;BME280;52765;52.258;21.052;2023-05-23T02:45:31;100578.03;;;13.04;83.41
65997;BME280;52765;52.258;21.052;2023-05-23T02:47:57;100583.97;;;13.07;83.78
65997;BME280;52765;52.258;21.052;2023-05-23T02:50:22;100584.31;;;13.04;83.98
65997;BME280;52765;52.258;21.052;2023-05-23T02:52:47;100577.69;;;13.07;83.85
65997;BME280;52765;52.258;21.052;2023-05-23T02:55:13;100581.59;;;13.04;84.18
65997;BME280;52765;52.258;21.052;2023-05-23T02:57:38;100576.53;;;13.01;84.80
65997;BME280;52765;52.258;21.052;2023-05-23T03:00:05;100578.72;;;12.98;84.93
65997;BME280;52765;52.258;21.052;2023-05-23T03:02:32;100578.03;;;13.04;84.66
65997;BME280;52765;52.258;21.052;2023-05-23T03:04:57;100568.06;;;13.04;84.53
65997;BME280;52765;52.258;21.052;2023-05-23T03:07:22;100577.53;;;13.08;84.69
65997;BME280;52765;52.258;21.052;2023-05-23T03:09:48;100572.63;;;13.04;83.89
65997;BME280;52765;52.258;21.052;2023-05-23T03:12:15;100574.50;;;13.03;84.12
65997;BME280;52765;52.258;21.052;2023-05-23T03:14:42;100567.91;;;13.06;84.36
65997;BME280;52765;52.258;21.052;2023-05-23T03:17:07;100575.84;;;13.07;84.73
65997;BME280;52765;52.258;21.052;2023-05-23T03:19:33;100579.06;;;13.11;84.41
65997;BME280;52765;52.258;21.052;2023-05-23T03:21:58;100577.03;;;13.13;84.21
65997;BME280;52765;52.258;21.052;2023-05-23T03:24:23;100572.13;;;13.17;84.18
65997;BME280;52765;52.258;21.052;2023-05-23T03:26:49;100581.44;;;13.14;83.92
65997;BME280;52765;52.258;21.052;2023-05-23T03:29:14;100570.78;;;13.12;84.20
65997;BME280;52765;52.258;21.052;2023-05-23T03:31:40;100578.56;;;13.16;84.64
65997;BME280;52765;52.258;21.052;2023-05-23T03:34:05;100575.66;;;13.17;84.79
65997;BME280;52765;52.258;21.052;2023-05-23T03:36:31;100580.91;;;13.19;84.43
65997;BME280;52765;52.258;21.052;2023-05-23T03:39:00;100572.63;;;13.20;84.31
65997;BME280;52765;52.258;21.052;2023-05-23T03:41:25;100569.94;;;13.28;84.73
65997;BME280;52765;52.258;21.052;2023-05-23T03:43:50;100574.34;;;13.29;84.74
65997;BME280;52765;52.258;21.052;2023-05-23T03:46:16;100577.72;;;13.31;84.27
65997;BME280;52765;52.258;21.052;2023-05-23T03:48:41;100572.16;;;13.33;84.35
65997;BME280;52765;52.258;21.052;2023-05-23T03:51:07;100576.03;;;13.39;84.52
65997;BME280;52765;52.258;21.052;2023-05-23T03:53:32;100573.00;;;13.42;84.32
65997;BME280;52765;52.258;21.052;2023-05-23T03:55:58;100570.28;;;13.50;84.12
65997;BME280;52765;52.258;21.052;2023-05-23T03:58:24;100564.72;;;13.51;84.04
65997;BME280;52765;52.258;21.052;2023-05-23T04:00:49;100567.56;;;13.58;83.69
65997;BME280;52765;52.258;21.052;2023-05-23T04:03:17;100568.78;;;13.64;83.32
65997;BME280;52765;52.258;21.052;2023-05-23T04:05:42;100570.94;;;13.68;82.75
65997;BME280;52765;52.258;21.052;2023-05-23T04:08:08;100564.84;;;13.75;82.45
65997;BME280;52765;52.258;21.052;2023-05-23T04:10:34;100560.59;;;13.80;81.89
65997;BME280;52765;52.258;21.052;2023-05-23T04:12:59;100552.63;;;13.87;81.02
65997;BME280;52765;52.258;21.052;2023-05-23T04:15:26;100553.63;;;13.94;80.65
65997;BME280;52765;52.258;21.052;2023-05-23T04:17:53;100554.44;;;14.03;80.34
65997;BME280;52765;52.258;21.052;2023-05-23T04:20:18;100560.84;;;14.10;79.77
65997;BME280;52765;52.258;21.052;2023-05-23T04:22:44;100554.72;;;14.16;79.14
65997;BME280;52765;52.258;21.052;2023-05-23T04:25:10;100558.41;;;14.23;78.86
65997;BME280;52765;52.258;21.052;2023-05-23T04:27:35;100554.84;;;14.31;78.41
65997;BME280;52765;52.258;21.052;2023-05-23T04:30:05;100556.69;;;14.39;78.29
65997;BME280;52765;52.258;21.052;2023-05-23T04:32:32;100555.78;;;14.47;77.83
65997;BME280;52765;52.258;21.052;2023-05-23T04:34:58;100554.06;;;14.54;77.10
65997;BME280;52765;52.258;21.052;2023-05-23T04:37:26;100548.59;;;14.62;76.64
65997;BME280;52765;52.258;21.052;2023-05-23T04:39:52;100556.50;;;14.72;76.08
65997;BME280;52765;52.258;21.052;2023-05-23T04:42:17;100555.44;;;14.81;75.09
65997;BME280;52765;52.258;21.052;2023-05-23T04:44:49;100549.97;;;14.89;74.45
65997;BME280;52765;52.258;21.052;2023-05-23T04:47:15;100549.06;;;14.97;73.31
65997;BME280;52765;52.258;21.052;2023-05-23T04:49:40;100542.06;;;15.03;72.68
65997;BME280;52765;52.258;21.052;2023-05-23T04:52:06;100549.78;;;15.14;71.99
65997;BME280;52765;52.258;21.052;2023-05-23T04:54:32;100550.09;;;15.19;71.33
65997;BME280;52765;52.258;21.052;2023-05-23T04:56:57;100546.84;;;15.01;71.31
65997;BME280;52765;52.258;21.052;2023-05-23T04:59:23;100544.97;;;15.01;70.99
65997;BME280;52765;52.258;21.052;2023-05-23T05:01:48;100545.91;;;15.08;70.36
65997;BME280;52765;52.258;21.052;2023-05-23T05:04:14;100552.97;;;15.17;69.53
65997;BME280;52765;52.258;21.052;2023-05-23T05:06:40;100541.38;;;15.24;68.88
65997;BME280;52765;52.258;21.052;2023-05-23T05:09:05;100547.78;;;15.31;68.06
65997;BME280;52765;52.258;21.052;2023-05-23T05:11:31;100537.69;;;15.40;67.63
65997;BME280;52765;52.258;21.052;2023-05-23T05:13:56;100538.25;;;15.50;66.60
65997;BME280;52765;52.258;21.052;2023-05-23T05:16:22;100540.25;;;15.56;65.93
65997;BME280;52765;52.258;21.052;2023-05-23T05:18:47;100530.50;;;15.62;65.20
65997;BME280;52765;52.258;21.052;2023-05-23T05:21:12;100534.47;;;15.74;64.39
65997;BME280;52765;52.258;21.052;2023-05-23T05:23:38;100527.09;;;15.83;63.79
65997;BME280;52765;52.258;21.052;2023-05-23T05:26:03;100522.97;;;15.87;63.05
65997;BME280;52765;52.258;21.052;2023-05-23T05:28:29;100524.56;;;15.96;62.84
65997;BME280;52765;52.258;21.052;2023-05-23T05:30:55;100528.88;;;16.05;62.37
65997;BME280;52765;52.258;21.052;2023-05-23T05:33:21;100526.03;;;16.14;62.12
65997;BME280;52765;52.258;21.052;2023-05-23T05:35:52;100528.66;;;16.22;62.17
65997;BME280;52765;52.258;21.052;2023-05-23T05:38:17;100526.88;;;16.29;62.35
65997;BME280;52765;52.258;21.052;2023-05-23T05:40:43;100527.78;;;16.36;62.27
65997;BME280;52765;52.258;21.052;2023-05-23T05:43:08;100535.00;;;16.44;62.22
65997;BME280;52765;52.258;21.052;2023-05-23T05:45:34;100527.13;;;16.49;61.89
65997;BME280;52765;52.258;21.052;2023-05-23T05:48:00;100523.22;;;16.58;61.56
65997;BME280;52765;52.258;21.052;2023-05-23T05:50:25;100518.25;;;16.62;61.36
65997;BME280;52765;52.258;21.052;2023-05-23T05:52:53;100530.25;;;17.04;60.22
65997;BME280;52765;52.258;21.052;2023-05-23T05:55:19;100531.81;;;17.20;59.75
65997;BME280;52765;52.258;21.052;2023-05-23T05:57:44;100526.31;;;17.35;59.23
65997;BME280;52765;52.258;21.052;2023-05-23T06:00:12;100525.56;;;17.48;59.06
65997;BME280;52765;52.258;21.052;2023-05-23T06:02:43;100522.31;;;17.59;58.87
65997;BME280;52765;52.258;21.052;2023-05-23T06:05:13;100517.34;;;17.69;58.19
65997;BME280;52765;52.258;21.052;2023-05-23T06:10:41;100513.66;;;17.84;57.56
65997;BME280;52765;52.258;21.052;2023-05-23T06:13:09;100507.22;;;17.91;57.07
65997;BME280;52765;52.258;21.052;2023-05-23T06:15:34;100508.75;;;18.01;56.75
65997;BME280;52765;52.258;21.052;2023-05-23T06:18:00;100512.16;;;18.09;56.27
65997;BME280;52765;52.258;21.052;2023-05-23T06:20:25;100511.16;;;18.17;56.14
65997;BME280;52765;52.258;21.052;2023-05-23T06:22:50;100504.84;;;18.23;55.97
65997;BME280;52765;52.258;21.052;2023-05-23T06:25:20;100509.72;;;18.35;54.93
65997;BME280;52765;52.258;21.052;2023-05-23T06:27:45;100504.09;;;18.43;54.58
65997;BME280;52765;52.258;21.052;2023-05-23T06:30:14;100508.13;;;18.54;54.29
65997;BME280;52765;52.258;21.052;2023-05-23T06:32:40;100518.84;;;18.62;54.00
65997;BME280;52765;52.258;21.052;2023-05-23T06:35:06;100497.25;;;18.67;53.82
65997;BME280;52765;52.258;21.052;2023-05-23T06:37:34;100503.78;;;18.79;53.47
65997;BME280;52765;52.258;21.052;2023-05-23T06:40:02;100496.03;;;18.90;53.34
65997;BME280;52765;52.258;21.052;2023-05-23T06:42:28;100488.47;;;18.98;53.40
65997;BME280;52765;52.258;21.052;2023-05-23T06:44:53;100494.41;;;19.09;53.01
65997;BME280;52765;52.258;21.052;2023-05-23T06:47:19;100482.19;;;19.18;52.40
65997;BME280;52765;52.258;21.052;2023-05-23T06:49:44;100480.28;;;19.25;52.26
65997;BME280;52765;52.258;21.052;2023-05-23T06:52:10;100468.53;;;19.31;51.60
65997;BME280;52765;52.258;21.052;2023-05-23T06:54:35;100472.31;;;19.44;50.58
65997;BME280;52765;52.258;21.052;2023-05-23T06:57:08;100473.34;;;19.56;49.99
65997;BME280;52765;52.258;21.052;2023-05-23T06:59:48;100458.19;;;19.60;49.18
65997;BME280;52765;52.258;21.052;2023-05-23T07:02:13;100466.16;;;19.75;48.05
65997;BME280;52765;52.258;21.052;2023-05-23T07:04:44;100465.09;;;19.83;47.28
65997;BME280;52765;52.258;21.052;2023-05-23T07:07:09;100466.56;;;19.92;47.41
65997;BME280;52765;52.258;21.052;2023-05-23T07:09:35;100461.69;;;20.01;47.03
65997;BME280;52765;52.258;21.052;2023-05-23T07:12:01;100459.94;;;20.13;47.52
65997;BME280;52765;52.258;21.052;2023-05-23T07:14:27;100451.69;;;20.20;47.43
65997;BME280;52765;52.258;21.052;2023-05-23T07:16:52;100453.34;;;20.27;47.95
65997;BME280;52765;52.258;21.052;2023-05-23T07:19:18;100450.97;;;20.38;47.62
65997;BME280;52765;52.258;21.052;2023-05-23T07:21:43;100446.50;;;20.43;46.78
65997;BME280;52765;52.258;21.052;2023-05-23T07:24:08;100450.06;;;20.50;46.28
65997;BME280;52765;52.258;21.052;2023-05-23T07:26:34;100441.59;;;20.59;45.96
65997;BME280;52765;52.258;21.052;2023-05-23T07:28:59;100444.31;;;20.65;45.88
65997;BME280;52765;52.258;21.052;2023-05-23T07:31:25;100450.59;;;20.73;45.17
65997;BME280;52765;52.258;21.052;2023-05-23T07:33:50;100449.66;;;20.85;45.07
65997;BME280;52765;52.258;21.052;2023-05-23T07:36:18;100455.25;;;20.97;45.27
65997;BME280;52765;52.258;21.052;2023-05-23T07:38:44;100443.41;;;21.03;44.22
65997;BME280;52765;52.258;21.052;2023-05-23T07:41:11;100429.25;;;21.06;42.83
65997;BME280;52765;52.258;21.052;2023-05-23T07:43:40;100438.91;;;21.09;43.10
65997;BME280;52765;52.258;21.052;2023-05-23T07:46:05;100424.56;;;21.14;43.08
65997;BME280;52765;52.258;21.052;2023-05-23T07:48:32;100431.41;;;21.23;43.13
65997;BME280;52765;52.258;21.052;2023-05-23T07:50:57;100429.69;;;21.29;43.13
65997;BME280;52765;52.258;21.052;2023-05-23T07:53:22;100431.91;;;21.38;42.86
65997;BME280;52765;52.258;21.052;2023-05-23T07:58:42;100415.97;;;21.54;38.82
65997;BME280;52765;52.258;21.052;2023-05-23T08:01:08;100413.31;;;21.66;38.79
65997;BME280;52765;52.258;21.052;2023-05-23T08:03:33;100419.31;;;21.74;38.98
65997;BME280;52765;52.258;21.052;2023-05-23T08:05:59;100413.97;;;21.79;38.98
65997;BME280;52765;52.258;21.052;2023-05-23T08:08:24;100407.34;;;21.87;39.04
65997;BME280;52765;52.258;21.052;2023-05-23T08:10:52;100419.28;;;21.93;38.68
65997;BME280;52765;52.258;21.052;2023-05-23T08:13:17;100401.09;;;21.98;38.51
65997;BME280;52765;52.258;21.052;2023-05-23T08:15:43;100407.09;;;22.07;38.23
65997;BME280;52765;52.258;21.052;2023-05-23T08:18:10;100409.16;;;22.12;38.72
65997;BME280;52765;52.258;21.052;2023-05-23T08:20:36;100409.88;;;22.19;38.55
65997;BME280;52765;52.258;21.052;2023-05-23T08:23:02;100411.34;;;22.22;37.28
65997;BME280;52765;52.258;21.052;2023-05-23T08:25:27;100403.88;;;22.29;36.95
65997;BME280;52765;52.258;21.052;2023-05-23T08:27:57;100406.50;;;22.35;37.16
65997;BME280;52765;52.258;21.052;2023-05-23T08:30:24;100416.81;;;22.22;37.77
65997;BME280;52765;52.258;21.052;2023-05-23T08:32:53;100403.19;;;22.15;38.32
65997;BME280;52765;52.258;21.052;2023-05-23T08:35:20;100403.44;;;22.13;37.70
65997;BME280;52765;52.258;21.052;2023-05-23T08:37:46;100400.81;;;22.18;37.75
65997;BME280;52765;52.258;21.052;2023-05-23T08:40:20;100403.75;;;22.05;37.28
65997;BME280;52765;52.258;21.052;2023-05-23T08:42:46;100388.13;;;22.06;36.84
65997;BME280;52765;52.258;21.052;2023-05-23T08:45:13;100392.44;;;22.32;36.62
65997;BME280;52765;52.258;21.052;2023-05-23T08:47:41;100388.69;;;22.57;36.87
65997;BME280;52765;52.258;21.052;2023-05-23T08:50:07;100395.84;;;22.69;35.21
65997;BME280;52765;52.258;21.052;2023-05-23T08:52:36;100389.75;;;22.56;35.19
65997;BME280;52765;52.258;21.052;2023-05-23T08:55:08;100379.22;;;22.41;35.24
65997;BME280;52765;52.258;21.052;2023-05-23T08:57:34;100375.88;;;22.39;34.79
65997;BME280;52765;52.258;21.052;2023-05-23T09:00:00;100383.31;;;22.50;34.48
65997;BME280;52765;52.258;21.052;2023-05-23T09:02:31;100379.22;;;22.52;35.41
65997;BME280;52765;52.258;21.052;2023-05-23T09:05:00;100379.91;;;23.02;34.67
65997;BME280;52765;52.258;21.052;2023-05-23T09:07:27;100383.97;;;23.23;33.95
65997;BME280;52765;52.258;21.052;2023-05-23T09:09:53;100379.94;;;23.14;33.71
65997;BME280;52765;52.258;21.052;2023-05-23T09:12:18;100377.97;;;23.38;33.47
65997;BME280;52765;52.258;21.052;2023-05-23T09:14:46;100374.28;;;23.44;32.87
65997;BME280;52765;52.258;21.052;2023-05-23T09:17:21;100377.25;;;23.42;34.04
65997;BME280;52765;52.258;21.052;2023-05-23T09:19:49;100376.09;;;23.26;34.46
65997;BME280;52765;52.258;21.052;2023-05-23T09:22:17;100370.59;;;23.15;34.58
65997;BME280;52765;52.258;21.052;2023-05-23T09:24:49;100376.44;;;23.30;34.14
65997;BME280;52765;52.258;21.052;2023-05-23T09:27:15;100365.34;;;23.37;33.80
65997;BME280;52765;52.258;21.052;2023-05-23T09:29:40;100380.84;;;23.31;33.86
65997;BME280;52765;52.258;21.052;2023-05-23T09:35:01;100377.81;;;23.68;33.39
65997;BME280;52765;52.258;21.052;2023-05-23T09:37:38;100372.53;;;23.90;32.58
65997;BME280;52765;52.258;21.052;2023-05-23T09:40:09;100379.91;;;24.01;32.66
65997;BME280;52765;52.258;21.052;2023-05-23T09:42:40;100367.00;;;24.19;32.25
65997;BME280;52765;52.258;21.052;2023-05-23T09:45:06;100369.34;;;24.27;32.42
65997;BME280;52765;52.258;21.052;2023-05-23T09:47:32;100371.22;;;24.10;32.66
65997;BME280;52765;52.258;21.052;2023-05-23T09:50:01;100373.44;;;23.96;33.56
65997;BME280;52765;52.258;21.052;2023-05-23T09:52:35;100365.84;;;24.15;33.68
65997;BME280;52765;52.258;21.052;2023-05-23T09:55:01;100360.28;;;24.44;33.00
65997;BME280;52765;52.258;21.052;2023-05-23T09:57:26;100352.41;;;24.64;33.25
65997;BME280;52765;52.258;21.052;2023-05-23T09:59:53;100356.91;;;24.87;33.41
65997;BME280;52765;52.258;21.052;2023-05-23T10:02:46;100349.09;;;25.01;32.91
65997;BME280;52765;52.258;21.052;2023-05-23T10:07:55;100355.50;;;24.85;32.59
65997;BME280;52765;52.258;21.052;2023-05-23T10:10:22;100363.41;;;24.98;32.24
65997;BME280;52765;52.258;21.052;2023-05-23T10:12:54;100357.81;;;25.10;30.90
65997;BME280;52765;52.258;21.052;2023-05-23T10:15:20;100363.22;;;25.22;31.46
65997;BME280;52765;52.258;21.052;2023-05-23T10:18:01;100359.94;;;25.08;31.53
65997;BME280;52765;52.258;21.052;2023-05-23T10:20:30;100353.22;;;24.99;31.21
65997;BME280;52765;52.258;21.052;2023-05-23T10:23:00;100356.50;;;25.18;31.16
65997;BME280;52765;52.258;21.052;2023-05-23T10:25:27;100357.44;;;25.40;31.04
65997;BME280;52765;52.258;21.052;2023-05-23T10:27:54;100348.84;;;25.59;30.79
65997;BME280;52765;52.258;21.052;2023-05-23T10:30:25;100347.53;;;25.89;30.31
65997;BME280;52765;52.258;21.052;2023-05-23T10:32:51;100344.84;;;26.21;29.59
65997;BME280;52765;52.258;21.052;2023-05-23T10:41:47;100342.03;;;26.75;28.24
65997;BME280;52765;52.258;21.052;2023-05-23T10:44:22;100338.19;;;26.76;28.42
65997;BME280;52765;52.258;21.052;2023-05-23T10:49:43;100343.81;;;26.59;29.14
65997;BME280;52765;52.258;21.052;2023-05-23T10:52:13;100352.94;;;26.60;28.86
65997;BME280;52765;52.258;21.052;2023-05-23T10:54:43;100335.41;;;26.71;28.67
65997;BME280;52765;52.258;21.052;2023-05-23T11:00:01;100330.63;;;27.04;28.10
65997;BME280;52765;52.258;21.052;2023-05-23T11:02:37;100327.47;;;27.28;28.21
65997;BME280;52765;52.258;21.052;2023-05-23T11:05:26;100340.34;;;27.60;28.06
65997;BME280;52765;52.258;21.052;2023-05-23T11:10:59;100324.63;;;27.76;27.72
65997;BME280;52765;52.258;21.052;2023-05-23T11:13:57;100317.16;;;27.76;27.91
65997;BME280;52765;52.258;21.052;2023-05-23T11:17:01;100335.63;;;27.55;26.93
65997;BME280;52765;52.258;21.052;2023-05-23T11:20:04;100312.09;;;27.58;27.99
65997;BME280;52765;52.258;21.052;2023-05-23T11:25:44;100314.75;;;27.95;27.12
65997;BME280;52765;52.258;21.052;2023-05-23T11:28:30;100316.22;;;27.45;28.26
65997;BME280;52765;52.258;21.052;2023-05-23T11:31:41;100303.94;;;26.83;29.05
65997;BME280;52765;52.258;21.052;2023-05-23T11:34:13;100295.09;;;26.43;29.55
65997;BME280;52765;52.258;21.052;2023-05-23T11:37:01;100308.75;;;26.28;30.07
65997;BME280;52765;52.258;21.052;2023-05-23T11:39:38;100305.91;;;26.50;30.12
65997;BME280;52765;52.258;21.052;2023-05-23T11:42:07;100307.44;;;26.68;29.57
65997;BME280;52765;52.258;21.052;2023-05-23T11:44:38;100312.66;;;26.64;29.67
65997;BME280;52765;52.258;21.052;2023-05-23T11:47:05;100300.56;;;26.70;29.54
65997;BME280;52765;52.258;21.052;2023-05-23T11:49:38;100305.34;;;26.80;29.49
65997;BME280;52765;52.258;21.052;2023-05-23T11:52:07;100297.97;;;27.01;29.18
65997;BME280;52765;52.258;21.052;2023-05-23T11:54:36;100297.31;;;27.26;29.03
65997;BME280;52765;52.258;21.052;2023-05-23T11:57:02;100297.13;;;27.43;28.62
65997;BME280;52765;52.258;21.052;2023-05-23T11:59:28;100294.19;;;27.91;28.54
65997;BME280;52765;52.258;21.052;2023-05-23T12:01:54;100282.66;;;28.20;27.66
65997;BME280;52765;52.258;21.052;2023-05-23T12:04:20;100285.44;;;28.56;27.50
65997;BME280;52765;52.258;21.052;2023-05-23T12:06:48;100295.09;;;28.94;28.16
65997;BME280;52765;52.258;21.052;2023-05-23T12:09:25;100294.25;;;28.94;26.70
65997;BME280;52765;52.258;21.052;2023-05-23T12:12:12;100282.31;;;28.98;26.16
65997;BME280;52765;52.258;21.052;2023-05-23T12:14:47;100275.91;;;29.19;26.17
65997;BME280;52765;52.258;21.052;2023-05-23T12:17:13;100279.03;;;28.86;26.73
65997;BME280;52765;52.258;21.052;2023-05-23T12:19:39;100276.78;;;28.98;26.71
65997;BME280;52765;52.258;21.052;2023-05-23T12:22:21;100265.75;;;28.27;26.21
65997;BME280;52765;52.258;21.052;2023-05-23T12:24:57;100282.50;;;27.48;27.49
65997;BME280;52765;52.258;21.052;2023-05-23T12:27:32;100287.97;;;27.38;28.18
65997;BME280;52765;52.258;21.052;2023-05-23T12:32:32;100277.22;;;27.46;27.39
65997;BME280;52765;52.258;21.052;2023-05-23T12:34:58;100279.44;;;27.49;27.55
65997;BME280;52765;52.258;21.052;2023-05-23T12:37:23;100268.34;;;27.49;27.48
65997;BME280;52765;52.258;21.052;2023-05-23T12:43:14;100278.38;;;27.61;27.47
65997;BME280;52765;52.258;21.052;2023-05-23T12:48:49;100272.63;;;27.14;28.20
65997;BME280;52765;52.258;21.052;2023-05-23T12:51:15;100266.94;;;27.31;28.57
65997;BME280;52765;52.258;21.052;2023-05-23T12:53:40;100267.88;;;27.68;28.03
65997;BME280;52765;52.258;21.052;2023-05-23T12:56:06;100267.38;;;27.92;28.12
65997;BME280;52765;52.258;21.052;2023-05-23T12:58:32;100268.19;;;27.87;27.71
65997;BME280;52765;52.258;21.052;2023-05-23T13:01:04;100260.97;;;27.91;27.76
65997;BME280;52765;52.258;21.052;2023-05-23T13:03:30;100255.53;;;28.12;27.63
65997;BME280;52765;52.258;21.052;2023-05-23T13:05:56;100261.88;;;28.17;27.25
65997;BME280;52765;52.258;21.052;2023-05-23T13:08:23;100255.78;;;28.51;26.89
65997;BME280;52765;52.258;21.052;2023-05-23T13:10:48;100247.09;;;28.99;26.71
65997;BME280;52765;52.258;21.052;2023-05-23T13:13:17;100243.94;;;29.37;26.29
65997;BME280;52765;52.258;21.052;2023-05-23T13:15:42;100251.50;;;29.70;25.75
65997;BME280;52765;52.258;21.052;2023-05-23T13:18:08;100238.03;;;29.98;25.40
65997;BME280;52765;52.258;21.052;2023-05-23T13:20:36;100242.41;;;30.39;25.22
65997;BME280;52765;52.258;21.052;2023-05-23T13:23:01;100234.28;;;30.48;24.41
65997;BME280;52765;52.258;21.052;2023-05-23T13:25:27;100227.50;;;30.59;25.02
65997;BME280;52765;52.258;21.052;2023-05-23T13:27:53;100233.22;;;30.43;25.23
65997;BME280;52765;52.258;21.052;2023-05-23T13:30:23;100237.03;;;30.53;25.08
65997;BME280;52765;52.258;21.052;2023-05-23T13:32:49;100237.59;;;30.50;24.79